createdAt,value
2022-12-01T00:00:43.398Z,0
2022-12-01T00:02:23.179Z,0
2022-12-01T00:04:02.946Z,0
2022-12-01T00:05:42.707Z,0
2022-12-01T00:07:22.473Z,0
2022-12-01T00:09:02.245Z,0
2022-12-01T00:10:42.007Z,0
2022-12-01T00:12:21.773Z,0
2022-12-01T00:14:01.593Z,0
2022-12-01T00:15:41.318Z,0
2022-12-01T00:17:21.145Z,0
2022-12-01T00:19:00.869Z,0
2022-12-01T00:22:20.381Z,0
2022-12-01T00:24:00.151Z,0
2022-12-01T00:25:39.919Z,0
2022-12-01T00:27:19.752Z,0
2022-12-01T00:28:59.445Z,0
2022-12-01T00:30:39.247Z,0
2022-12-01T00:32:18.987Z,0
2022-12-01T00:33:58.750Z,0
2022-12-01T00:35:38.543Z,0
2022-12-01T00:37:18.344Z,0
2022-12-01T00:38:58.089Z,0
2022-12-01T00:40:37.828Z,0
2022-12-01T00:42:17.592Z,0
2022-12-01T00:43:57.360Z,0
2022-12-01T00:45:37.113Z,0
2022-12-01T00:47:16.927Z,0
2022-12-01T00:48:56.659Z,0
2022-12-01T00:50:36.420Z,0
2022-12-01T00:52:16.188Z,0
2022-12-01T00:53:55.962Z,0
2022-12-01T00:55:35.719Z,0
2022-12-01T00:57:15.499Z,0
2022-12-01T00:58:55.261Z,0
2022-12-01T01:00:35.026Z,0
2022-12-01T01:02:14.794Z,0
2022-12-01T01:03:54.552Z,0
2022-12-01T01:05:34.324Z,0
2022-12-01T01:07:14.108Z,0
2022-12-01T01:08:53.851Z,0
2022-12-01T01:10:33.638Z,0
2022-12-01T01:12:13.422Z,0
2022-12-01T01:13:53.178Z,0
2022-12-01T01:15:32.953Z,0
2022-12-01T01:17:12.703Z,0
2022-12-01T01:18:52.475Z,0
2022-12-01T01:20:32.243Z,0
2022-12-01T01:22:12.019Z,0
2022-12-01T01:23:51.774Z,0
2022-12-01T01:25:31.529Z,0
2022-12-01T01:27:11.395Z,0
2022-12-01T01:28:51.097Z,0
2022-12-01T01:30:30.833Z,0
2022-12-01T01:32:10.611Z,0
2022-12-01T01:33:50.451Z,0
2022-12-01T01:35:30.203Z,0
2022-12-01T01:37:09.915Z,0
2022-12-01T01:38:49.692Z,0
2022-12-01T01:42:09.269Z,0
2022-12-01T01:43:48.966Z,0
2022-12-01T01:45:28.749Z,0
2022-12-01T01:47:08.516Z,0
2022-12-01T01:48:48.266Z,0
2022-12-01T01:50:28.056Z,0
2022-12-01T01:52:07.813Z,0
2022-12-01T01:53:47.566Z,0
2022-12-01T01:55:27.338Z,0
2022-12-01T01:57:07.113Z,0
2022-12-01T01:58:46.883Z,0
2022-12-01T02:00:26.654Z,0
2022-12-01T02:02:06.411Z,0
2022-12-01T02:03:46.183Z,0
2022-12-01T02:05:26.031Z,0
2022-12-01T02:07:05.721Z,0
2022-12-01T02:08:45.545Z,0
2022-12-01T02:10:25.246Z,0
2022-12-01T02:12:05.011Z,0
2022-12-01T02:13:44.789Z,0
2022-12-01T02:15:24.591Z,0
2022-12-01T02:17:04.327Z,0
2022-12-01T02:18:44.089Z,0
2022-12-01T02:20:23.855Z,0
2022-12-01T02:22:03.614Z,0
2022-12-01T02:23:43.378Z,0
2022-12-01T02:25:23.141Z,0
2022-12-01T02:27:02.949Z,0
2022-12-01T02:28:42.812Z,0
2022-12-01T02:30:22.453Z,0
2022-12-01T02:32:02.228Z,0
2022-12-01T02:33:41.991Z,0
2022-12-01T02:35:21.762Z,0
2022-12-01T02:37:01.639Z,0
2022-12-01T02:38:41.396Z,0
2022-12-01T02:40:21.065Z,0
2022-12-01T02:42:00.829Z,0
2022-12-01T02:43:40.593Z,0
2022-12-01T02:45:20.352Z,0
2022-12-01T02:47:00.131Z,0
2022-12-01T02:48:39.921Z,0
2022-12-01T02:50:19.660Z,0
2022-12-01T02:51:59.426Z,0
2022-12-01T02:53:39.206Z,0
2022-12-01T02:55:18.960Z,0
2022-12-01T02:56:58.729Z,0
2022-12-01T02:58:38.490Z,0
2022-12-01T03:00:18.284Z,0
2022-12-01T03:01:58.034Z,0
2022-12-01T03:03:37.798Z,0
2022-12-01T03:05:17.556Z,0
2022-12-01T03:06:57.345Z,0
2022-12-01T03:08:37.094Z,0
2022-12-01T03:10:16.966Z,0
2022-12-01T03:11:56.632Z,0
2022-12-01T03:13:36.412Z,0
2022-12-01T03:15:16.170Z,0
2022-12-01T03:16:55.934Z,0
2022-12-01T03:18:35.711Z,0
2022-12-01T03:20:15.487Z,0
2022-12-01T03:21:55.234Z,0
2022-12-01T03:23:34.997Z,0
2022-12-01T03:25:14.803Z,0
2022-12-01T03:26:54.584Z,0
2022-12-01T03:28:34.305Z,0
2022-12-01T03:30:14.078Z,0
2022-12-01T03:31:53.856Z,0
2022-12-01T03:33:33.636Z,0
2022-12-01T03:35:13.379Z,0
2022-12-01T03:36:53.151Z,0
2022-12-01T03:38:32.911Z,0
2022-12-01T03:40:12.671Z,0
2022-12-01T03:41:52.443Z,0
2022-12-01T03:43:32.260Z,0
2022-12-01T03:45:11.979Z,0
2022-12-01T03:46:51.738Z,0
2022-12-01T03:48:31.507Z,0
2022-12-01T03:50:11.312Z,0
2022-12-01T03:51:51.035Z,0
2022-12-01T03:53:30.813Z,0
2022-12-01T03:55:10.579Z,0
2022-12-01T03:56:50.357Z,0
2022-12-01T03:58:30.101Z,0
2022-12-01T04:00:09.876Z,0
2022-12-01T04:01:49.656Z,0
2022-12-01T04:03:29.418Z,0
2022-12-01T04:05:09.184Z,0
2022-12-01T04:06:48.944Z,0
2022-12-01T04:08:28.733Z,0
2022-12-01T04:10:08.495Z,0
2022-12-01T04:11:48.336Z,0
2022-12-01T04:13:28.103Z,0
2022-12-01T04:15:07.816Z,0
2022-12-01T04:16:47.560Z,0
2022-12-01T04:18:27.317Z,0
2022-12-01T04:20:07.084Z,0
2022-12-01T04:21:46.864Z,0
2022-12-01T04:23:26.631Z,0
2022-12-01T04:25:06.399Z,0
2022-12-01T04:26:46.208Z,0
2022-12-01T04:28:25.911Z,0
2022-12-01T04:30:05.688Z,0
2022-12-01T04:31:45.496Z,0
2022-12-01T04:33:25.235Z,0
2022-12-01T04:35:05.002Z,0
2022-12-01T04:36:44.771Z,0
2022-12-01T04:38:24.533Z,0
2022-12-01T04:40:04.298Z,0
2022-12-01T04:41:44.065Z,0
2022-12-01T04:43:23.844Z,0
2022-12-01T04:45:03.586Z,0
2022-12-01T04:46:43.405Z,0
2022-12-01T04:48:23.137Z,0
2022-12-01T04:50:02.901Z,0
2022-12-01T04:51:42.656Z,0
2022-12-01T04:53:22.544Z,0
2022-12-01T04:55:02.227Z,0
2022-12-01T04:56:41.986Z,0
2022-12-01T04:58:21.723Z,0
2022-12-01T05:00:01.504Z,0
2022-12-01T05:01:41.313Z,0
2022-12-01T05:03:21.026Z,0
2022-12-01T05:05:00.830Z,0
2022-12-01T05:06:40.583Z,0
2022-12-01T05:08:20.330Z,0
2022-12-01T05:10:00.106Z,0
2022-12-01T05:11:39.880Z,0
2022-12-01T05:13:19.634Z,0
2022-12-01T05:14:59.403Z,0
2022-12-01T05:16:39.193Z,0
2022-12-01T05:18:18.932Z,0
2022-12-01T05:19:58.727Z,0
2022-12-01T05:21:38.493Z,0
2022-12-01T05:23:18.232Z,0
2022-12-01T05:24:58.002Z,0
2022-12-01T05:26:37.759Z,0
2022-12-01T05:28:17.538Z,0
2022-12-01T05:31:37.099Z,0
2022-12-01T05:33:16.891Z,0
2022-12-01T05:34:56.670Z,0
2022-12-01T05:36:36.418Z,0
2022-12-01T05:38:16.146Z,0
2022-12-01T05:39:55.906Z,0
2022-12-01T05:41:35.706Z,0
2022-12-01T05:43:15.452Z,0
2022-12-01T05:44:55.226Z,0
2022-12-01T05:46:34.972Z,0
2022-12-01T05:48:14.756Z,0
2022-12-01T05:49:54.524Z,0
2022-12-01T05:51:34.302Z,0
2022-12-01T05:53:14.047Z,0
2022-12-01T05:54:53.825Z,0
2022-12-01T05:56:33.594Z,0
2022-12-01T05:58:13.357Z,0
2022-12-01T05:59:53.128Z,0
2022-12-01T06:01:32.952Z,0
2022-12-01T06:03:12.641Z,0
2022-12-01T06:04:52.494Z,0
2022-12-01T06:06:32.217Z,0
2022-12-01T06:08:11.949Z,0
2022-12-01T06:09:51.727Z,0
2022-12-01T06:11:31.491Z,0
2022-12-01T06:13:11.277Z,0
2022-12-01T06:14:51.051Z,0
2022-12-01T06:16:30.815Z,0
2022-12-01T06:18:10.547Z,0
2022-12-01T06:19:50.318Z,0
2022-12-01T06:21:30.083Z,0
2022-12-01T06:23:09.861Z,0
2022-12-01T06:24:49.627Z,0
2022-12-01T06:26:29.388Z,0
2022-12-01T06:28:09.156Z,0
2022-12-01T06:29:48.927Z,0
2022-12-01T06:31:28.693Z,0
2022-12-01T06:33:08.453Z,0
2022-12-01T06:34:48.318Z,0
2022-12-01T06:36:28.007Z,0
2022-12-01T06:38:07.765Z,0
2022-12-01T06:41:27.306Z,0
2022-12-01T06:43:07.089Z,0
2022-12-01T06:44:46.838Z,0
2022-12-01T06:46:26.600Z,0
2022-12-01T06:48:06.480Z,0
2022-12-01T06:49:46.243Z,0
2022-12-01T06:51:25.893Z,0
2022-12-01T06:53:05.687Z,0
2022-12-01T06:54:45.447Z,0
2022-12-01T06:56:25.394Z,0
2022-12-01T06:58:04.996Z,0
2022-12-01T06:59:44.766Z,0
2022-12-01T07:01:24.553Z,0
2022-12-01T07:03:04.430Z,0
2022-12-01T07:04:44.085Z,0
2022-12-01T07:06:23.801Z,0.01
2022-12-01T07:08:03.587Z,0
2022-12-01T07:09:43.373Z,0.02
2022-12-01T07:11:23.189Z,0
2022-12-01T07:13:02.930Z,0
2022-12-01T07:14:42.654Z,0.03
2022-12-01T07:16:22.556Z,0.01
2022-12-01T07:19:41.947Z,0.06
2022-12-01T07:21:21.774Z,0
2022-12-01T07:23:01.482Z,0.07
2022-12-01T07:24:41.266Z,0.05
2022-12-01T07:26:21.058Z,0.09
2022-12-01T07:28:00.804Z,0.11
2022-12-01T07:29:40.603Z,0.07
2022-12-01T07:31:20.334Z,0.07
2022-12-01T07:33:00.214Z,0.14
2022-12-01T07:34:39.858Z,0.13
2022-12-01T07:36:19.642Z,0.1
2022-12-01T07:39:39.202Z,0.06
2022-12-01T07:41:19.109Z,0
2022-12-01T07:42:58.710Z,0.07
2022-12-01T07:44:38.461Z,0.1
2022-12-01T07:46:18.237Z,0.04
2022-12-01T07:47:58.010Z,0.08
2022-12-01T07:49:37.893Z,0.1
2022-12-01T07:52:57.479Z,0.11
2022-12-01T07:54:37.157Z,0.09
2022-12-01T07:56:16.929Z,0.08
2022-12-01T07:57:56.618Z,0.11
2022-12-01T07:59:36.468Z,0.11
2022-12-01T08:01:16.149Z,0.12
2022-12-01T08:02:55.941Z,0.13
2022-12-01T08:04:35.742Z,0.14
2022-12-01T08:06:15.529Z,0.13
2022-12-01T08:07:55.211Z,0.13
2022-12-01T08:09:34.988Z,0.13
2022-12-01T08:11:14.922Z,0.07
2022-12-01T08:12:54.590Z,0.14
2022-12-01T08:14:34.358Z,0.14
2022-12-01T08:16:14.062Z,0.15
2022-12-01T08:17:53.822Z,0.15
2022-12-01T08:19:33.682Z,0.15
2022-12-01T08:21:13.506Z,0.15
2022-12-01T08:22:53.154Z,0.15
2022-12-01T08:24:33.007Z,0.16
2022-12-01T08:26:12.666Z,0.17
2022-12-01T08:27:52.500Z,0.17
2022-12-01T08:29:32.204Z,0.19
2022-12-01T08:31:12.069Z,0.19
2022-12-01T08:32:51.739Z,0.19
2022-12-01T08:34:31.645Z,0.18
2022-12-01T08:36:11.290Z,0.18
2022-12-01T08:37:51.135Z,0.19
2022-12-01T08:39:30.816Z,0.2
2022-12-01T08:41:10.650Z,0.24
2022-12-01T08:42:50.360Z,0.27
2022-12-01T08:44:30.143Z,0.31
2022-12-01T08:46:09.895Z,0.35
2022-12-01T08:47:49.807Z,0.34
2022-12-01T08:49:29.531Z,0.36
2022-12-01T08:51:09.314Z,0.38
2022-12-01T08:52:48.985Z,0.34
2022-12-01T08:54:28.747Z,0.31
2022-12-01T08:56:08.523Z,0.33
2022-12-01T08:57:48.386Z,0.3
2022-12-01T08:59:28.052Z,0.29
2022-12-01T09:01:07.831Z,0.3
2022-12-01T09:02:47.670Z,0.3
2022-12-01T09:04:27.430Z,0.3
2022-12-01T09:06:07.175Z,0.3
2022-12-01T09:07:46.906Z,0.28
2022-12-01T09:09:26.682Z,0.29
2022-12-01T09:11:06.513Z,0.29
2022-12-01T09:12:46.291Z,0.28
2022-12-01T09:14:26.001Z,0.27
2022-12-01T09:16:05.767Z,0.27
2022-12-01T09:17:45.529Z,0.28
2022-12-01T09:19:25.437Z,0.27
2022-12-01T09:21:05.062Z,0.28
2022-12-01T09:22:44.843Z,0.29
2022-12-01T09:24:24.612Z,0.31
2022-12-01T09:26:04.446Z,0.31
2022-12-01T09:27:44.145Z,0.34
2022-12-01T09:29:23.924Z,0.37
2022-12-01T09:31:03.687Z,0.37
2022-12-01T09:32:43.452Z,0.4
2022-12-01T09:34:23.354Z,0.39
2022-12-01T09:36:03.035Z,0.41
2022-12-01T09:37:42.782Z,0.41
2022-12-01T09:39:22.626Z,0.4
2022-12-01T09:41:02.363Z,0.45
2022-12-01T09:42:42.090Z,0.44
2022-12-01T09:44:21.910Z,0.44
2022-12-01T09:46:01.671Z,0.41
2022-12-01T09:49:21.238Z,0.42
2022-12-01T09:51:00.934Z,0.39
2022-12-01T09:52:40.788Z,0.37
2022-12-01T09:54:20.465Z,0.43
2022-12-01T09:56:00.240Z,0.39
2022-12-01T09:57:40.012Z,0.38
2022-12-01T09:59:19.811Z,0.38
2022-12-01T10:00:59.579Z,0.37
2022-12-01T10:02:39.325Z,0.39
2022-12-01T10:04:19.206Z,0.38
2022-12-01T10:05:58.873Z,0.38
2022-12-01T10:07:38.628Z,0.39
2022-12-01T10:09:18.403Z,0.41
2022-12-01T10:10:58.240Z,0.39
2022-12-01T10:12:38.044Z,0.42
2022-12-01T10:14:17.720Z,0.42
2022-12-01T10:15:57.486Z,0.39
2022-12-01T10:17:37.319Z,0.34
2022-12-01T10:19:17.039Z,0.31
2022-12-01T10:20:56.798Z,0.27
2022-12-01T10:22:36.564Z,0.26
2022-12-01T10:24:16.362Z,0.24
2022-12-01T10:25:56.110Z,0.2
2022-12-01T10:27:35.918Z,0.19
2022-12-01T10:29:15.665Z,0.2
2022-12-01T10:30:55.446Z,0.19
2022-12-01T10:32:35.276Z,0.17
2022-12-01T10:34:14.980Z,0.17
2022-12-01T10:35:54.832Z,0.17
2022-12-01T10:39:14.458Z,0.17
2022-12-01T10:40:54.184Z,0.16
2022-12-01T10:42:33.893Z,0.16
2022-12-01T10:44:13.715Z,0.16
2022-12-01T10:45:53.442Z,0.17
2022-12-01T10:47:33.291Z,0.22
2022-12-01T10:49:13.043Z,0.27
2022-12-01T10:50:52.784Z,0.29
2022-12-01T10:52:32.551Z,0.26
2022-12-01T10:54:12.232Z,0.23
2022-12-01T10:55:52.061Z,0.23
2022-12-01T10:57:31.737Z,0.26
2022-12-01T10:59:11.581Z,0.29
2022-12-01T11:00:51.272Z,0.3
2022-12-01T11:02:31.064Z,0.27
2022-12-01T11:04:10.959Z,0.29
2022-12-01T11:05:50.593Z,0.23
2022-12-01T11:07:30.360Z,0.24
2022-12-01T11:09:10.247Z,0.28
2022-12-01T11:10:49.889Z,0.26
2022-12-01T11:12:29.767Z,0.24
2022-12-01T11:14:09.608Z,0.23
2022-12-01T11:15:49.204Z,0.27
2022-12-01T11:17:28.970Z,0.32
2022-12-01T11:19:08.869Z,0.31
2022-12-01T11:20:48.631Z,0.29
2022-12-01T11:22:28.485Z,0.26
2022-12-01T11:24:08.224Z,0.26
2022-12-01T11:25:47.983Z,0.26
2022-12-01T11:27:27.731Z,0.28
2022-12-01T11:29:07.347Z,0.28
2022-12-01T11:30:47.160Z,0.22
2022-12-01T11:32:27.067Z,0.21
2022-12-01T11:34:06.842Z,0.23
2022-12-01T11:35:46.608Z,0.24
2022-12-01T11:37:26.384Z,0.21
2022-12-01T11:39:06.166Z,0.23
2022-12-01T11:40:45.969Z,0.24
2022-12-01T11:42:25.697Z,0.28
2022-12-01T11:44:05.455Z,0.26
2022-12-01T11:45:45.066Z,0.28
2022-12-01T11:47:24.844Z,0.27
2022-12-01T11:50:44.466Z,0.24
2022-12-01T11:52:24.368Z,0.27
2022-12-01T11:54:04.078Z,0.29
2022-12-01T11:55:43.914Z,0.34
2022-12-01T11:57:23.609Z,0.39
2022-12-01T11:59:03.465Z,0.37
2022-12-01T12:00:43.121Z,0.34
2022-12-01T12:02:22.937Z,0.35
2022-12-01T12:04:02.698Z,0.35
2022-12-01T12:05:42.484Z,0.3
2022-12-01T12:07:22.084Z,0.34
2022-12-01T12:09:01.966Z,0.33
2022-12-01T12:10:41.753Z,0.34
2022-12-01T12:12:21.601Z,0.34
2022-12-01T12:14:01.355Z,0.3
2022-12-01T12:15:40.956Z,0.28
2022-12-01T12:17:20.876Z,0.27
2022-12-01T12:19:00.642Z,0.28
2022-12-01T12:20:40.402Z,0.24
2022-12-01T12:22:20.007Z,0.24
2022-12-01T12:23:59.899Z,0.25
2022-12-01T12:25:39.562Z,0.21
2022-12-01T12:27:19.465Z,0.19
2022-12-01T12:28:59.117Z,0.19
2022-12-01T12:30:38.865Z,0.19
2022-12-01T12:32:18.622Z,0.19
2022-12-01T12:33:58.526Z,0.2
2022-12-01T12:35:38.319Z,0.2
2022-12-01T12:37:18.148Z,0.25
2022-12-01T12:38:57.844Z,0.27
2022-12-01T12:40:37.682Z,0.27
2022-12-01T12:42:17.407Z,0.26
2022-12-01T12:43:57.242Z,0.27
2022-12-01T12:45:36.972Z,0.29
2022-12-01T12:47:16.750Z,0.31
2022-12-01T12:48:56.348Z,0.34
2022-12-01T12:50:36.201Z,0.38
2022-12-01T12:52:16.019Z,0.37
2022-12-01T12:53:55.663Z,0.35
2022-12-01T12:55:35.524Z,0.24
2022-12-01T12:57:15.319Z,0.32
2022-12-01T12:58:55.083Z,0.29
2022-12-01T13:02:14.505Z,0.27
2022-12-01T13:03:54.329Z,0.26
2022-12-01T13:05:34.021Z,0.24
2022-12-01T13:07:13.790Z,0.27
2022-12-01T13:08:53.691Z,0.26
2022-12-01T13:10:33.333Z,0.22
2022-12-01T13:12:13.178Z,0.22
2022-12-01T13:13:53.003Z,0.23
2022-12-01T13:15:32.643Z,0.22
2022-12-01T13:17:12.458Z,0.22
2022-12-01T13:18:52.309Z,0.21
2022-12-01T13:20:32.147Z,0.2
2022-12-01T13:22:11.810Z,0.21
2022-12-01T13:23:51.637Z,0.2
2022-12-01T13:25:31.273Z,0.19
2022-12-01T13:27:11.044Z,0.19
2022-12-01T13:28:50.819Z,0.19
2022-12-01T13:30:30.574Z,0.2
2022-12-01T13:32:10.425Z,0.19
2022-12-01T13:33:50.251Z,0.19
2022-12-01T13:35:29.937Z,0.16
2022-12-01T13:37:09.658Z,0.17
2022-12-01T13:38:49.522Z,0.17
2022-12-01T13:40:29.230Z,0.15
2022-12-01T13:42:09.136Z,0.15
2022-12-01T13:43:48.926Z,0.15
2022-12-01T13:45:28.690Z,0.13
2022-12-01T13:47:08.439Z,0.09
2022-12-01T13:48:48.156Z,0.12
2022-12-01T13:50:27.991Z,0.1
2022-12-01T13:52:07.741Z,0.11
2022-12-01T13:53:47.509Z,0.08
2022-12-01T13:55:27.325Z,0.09
2022-12-01T13:57:06.880Z,0.06
2022-12-01T13:58:46.864Z,0.06
2022-12-01T14:00:26.639Z,0.07
2022-12-01T14:02:06.363Z,0.08
2022-12-01T14:03:46.159Z,0.09
2022-12-01T14:07:05.754Z,0.07
2022-12-01T14:10:25.126Z,0.06
2022-12-01T14:12:04.888Z,0.05
2022-12-01T14:13:44.648Z,0.08
2022-12-01T14:15:24.343Z,0.07
2022-12-01T14:17:04.265Z,0.03
2022-12-01T14:18:43.880Z,0.03
2022-12-01T14:20:23.655Z,0.04
2022-12-01T14:22:03.434Z,0.02
2022-12-01T14:23:43.225Z,0.03
2022-12-01T14:25:23.043Z,0.04
2022-12-01T14:27:02.734Z,0.03
2022-12-01T14:28:42.556Z,0.04
2022-12-01T14:30:22.267Z,0.04
2022-12-01T14:32:02.063Z,0
2022-12-01T14:33:41.810Z,0.01
2022-12-01T14:35:21.592Z,0
2022-12-01T14:37:01.415Z,0.01
2022-12-01T14:40:20.892Z,0.01
2022-12-01T14:42:00.666Z,0
2022-12-01T14:43:40.431Z,0
2022-12-01T14:45:20.191Z,0
2022-12-01T14:46:59.973Z,0
2022-12-01T14:48:39.751Z,0
2022-12-01T14:50:19.490Z,0
2022-12-01T14:51:59.264Z,0
2022-12-01T14:53:39.032Z,0
2022-12-01T14:55:18.838Z,0
2022-12-01T14:56:58.577Z,0
2022-12-01T14:58:38.325Z,0
2022-12-01T15:00:18.109Z,0
2022-12-01T15:01:57.875Z,0
2022-12-01T15:03:37.625Z,0
2022-12-01T15:05:17.400Z,0
2022-12-01T15:06:57.166Z,0
2022-12-01T15:08:36.940Z,0
2022-12-01T15:10:16.702Z,0
2022-12-01T15:11:56.493Z,0
2022-12-01T15:13:36.240Z,0
2022-12-01T15:15:16.016Z,0
2022-12-01T15:16:55.774Z,0
2022-12-01T15:18:35.547Z,0
2022-12-01T15:20:15.363Z,0
2022-12-01T15:21:55.062Z,0
2022-12-01T15:23:34.849Z,0
2022-12-01T15:25:14.620Z,0
2022-12-01T15:26:54.374Z,0
2022-12-01T15:28:34.149Z,0
2022-12-01T15:30:13.911Z,0
2022-12-01T15:31:53.671Z,0
2022-12-01T15:33:33.455Z,0
2022-12-01T15:35:13.203Z,0
2022-12-01T15:36:52.972Z,0
2022-12-01T15:38:32.747Z,0
2022-12-01T15:40:12.496Z,0
2022-12-01T15:41:52.279Z,0
2022-12-01T15:43:32.121Z,0
2022-12-01T15:45:11.818Z,0
2022-12-01T15:46:51.583Z,0
2022-12-01T15:48:31.339Z,0
2022-12-01T15:50:11.125Z,0
2022-12-01T15:51:50.888Z,0
2022-12-01T15:53:30.661Z,0
2022-12-01T15:55:10.443Z,0
2022-12-01T15:56:50.188Z,0
2022-12-01T15:58:29.958Z,0
2022-12-01T16:03:29.247Z,0
2022-12-01T16:05:09.024Z,0
2022-12-01T16:06:48.792Z,0
2022-12-01T16:08:28.549Z,0
2022-12-01T16:10:08.315Z,0
2022-12-01T16:11:48.089Z,0
2022-12-01T16:13:27.857Z,0
2022-12-01T16:15:07.627Z,0
2022-12-01T16:16:47.402Z,0
2022-12-01T16:18:27.165Z,0
2022-12-01T16:20:06.919Z,0
2022-12-01T16:21:46.692Z,0
2022-12-01T16:23:26.463Z,0
2022-12-01T16:25:06.230Z,0
2022-12-01T16:26:45.997Z,0
2022-12-01T16:28:25.766Z,0
2022-12-01T16:30:05.520Z,0
2022-12-01T16:31:45.298Z,0
2022-12-01T16:33:25.072Z,0
2022-12-01T16:35:04.822Z,0
2022-12-01T16:36:44.635Z,0
2022-12-01T16:38:24.381Z,0
2022-12-01T16:40:04.120Z,0
2022-12-01T16:41:43.907Z,0
2022-12-01T16:43:23.664Z,0
2022-12-01T16:45:03.444Z,0
2022-12-01T16:46:43.211Z,0
2022-12-01T16:48:23.048Z,0
2022-12-01T16:50:02.728Z,0
2022-12-01T16:51:42.517Z,0
2022-12-01T16:53:22.265Z,0
2022-12-01T16:55:02.031Z,0
2022-12-01T16:56:41.812Z,0
2022-12-01T16:58:21.653Z,0
2022-12-01T17:00:01.334Z,0
2022-12-01T17:01:41.169Z,0
2022-12-01T17:03:20.869Z,0
2022-12-01T17:05:00.655Z,0
2022-12-01T17:06:40.398Z,0
2022-12-01T17:08:20.173Z,0
2022-12-01T17:09:59.932Z,0
2022-12-01T17:11:39.725Z,0
2022-12-01T17:13:19.480Z,0
2022-12-01T17:14:59.253Z,0
2022-12-01T17:16:39.013Z,0
2022-12-01T17:18:18.780Z,0
2022-12-01T17:19:58.551Z,0
2022-12-01T17:21:38.315Z,0
2022-12-01T17:23:18.084Z,0
2022-12-01T17:24:57.851Z,0
2022-12-01T17:26:37.615Z,0
2022-12-01T17:28:17.370Z,0
2022-12-01T17:29:57.160Z,0
2022-12-01T17:31:36.920Z,0
2022-12-01T17:33:16.685Z,0
2022-12-01T17:34:56.460Z,0
2022-12-01T17:36:36.213Z,0
2022-12-01T17:38:15.984Z,0
2022-12-01T17:39:55.743Z,0
2022-12-01T17:41:35.508Z,0
2022-12-01T17:43:15.283Z,0
2022-12-01T17:44:55.075Z,0
2022-12-01T17:46:34.815Z,0
2022-12-01T17:48:14.595Z,0
2022-12-01T17:49:54.347Z,0
2022-12-01T17:51:34.140Z,0
2022-12-01T17:53:13.887Z,0
2022-12-01T17:54:53.660Z,0
2022-12-01T17:56:33.417Z,0
2022-12-01T17:58:13.190Z,0
2022-12-01T17:59:52.987Z,0
2022-12-01T18:01:32.733Z,0
2022-12-01T18:03:12.495Z,0
2022-12-01T18:06:32.024Z,0
2022-12-01T18:08:11.791Z,0
2022-12-01T18:09:51.644Z,0
2022-12-01T18:11:31.382Z,0
2022-12-01T18:13:11.102Z,0
2022-12-01T18:14:50.911Z,0
2022-12-01T18:16:30.633Z,0
2022-12-01T18:18:10.399Z,0
2022-12-01T18:19:50.161Z,0
2022-12-01T18:21:29.933Z,0
2022-12-01T18:23:09.694Z,0
2022-12-01T18:24:49.468Z,0
2022-12-01T18:26:29.240Z,0
2022-12-01T18:29:48.772Z,0
2022-12-01T18:31:28.549Z,0
2022-12-01T18:33:08.315Z,0
2022-12-01T18:34:48.076Z,0
2022-12-01T18:36:27.836Z,0
2022-12-01T18:39:47.372Z,0
2022-12-01T18:41:27.142Z,0
2022-12-01T18:43:06.897Z,0
2022-12-01T18:44:46.714Z,0
2022-12-01T18:46:26.445Z,0
2022-12-01T18:48:06.218Z,0
2022-12-01T18:49:45.977Z,0
2022-12-01T18:51:25.883Z,0
2022-12-01T18:53:05.601Z,0
2022-12-01T18:54:45.315Z,0
2022-12-01T18:56:25.043Z,0
2022-12-01T18:58:04.824Z,0
2022-12-01T18:59:44.573Z,0
2022-12-01T19:01:24.334Z,0
2022-12-01T19:03:04.096Z,0
2022-12-01T19:04:43.901Z,0
2022-12-01T19:06:23.744Z,0
2022-12-01T19:08:03.418Z,0
2022-12-01T19:09:43.159Z,0
2022-12-01T19:13:02.707Z,0
2022-12-01T19:14:42.568Z,0
2022-12-01T19:16:22.249Z,0
2022-12-01T19:18:02.006Z,0
2022-12-01T19:19:41.777Z,0
2022-12-01T19:21:21.611Z,0
2022-12-01T19:23:01.335Z,0
2022-12-01T19:24:41.095Z,0
2022-12-01T19:26:20.844Z,0
2022-12-01T19:28:00.605Z,0
2022-12-01T19:29:40.385Z,0
2022-12-01T19:31:20.149Z,0
2022-12-01T19:32:59.917Z,0
2022-12-01T19:34:39.696Z,0
2022-12-01T19:36:19.458Z,0
2022-12-01T19:37:59.214Z,0
2022-12-01T19:39:38.983Z,0
2022-12-01T19:41:18.751Z,0
2022-12-01T19:42:58.534Z,0
2022-12-01T19:44:38.290Z,0
2022-12-01T19:46:18.054Z,0
2022-12-01T19:47:57.813Z,0
2022-12-01T19:49:37.590Z,0
2022-12-01T19:51:17.350Z,0
2022-12-01T19:52:57.186Z,0
2022-12-01T19:54:36.921Z,0
2022-12-01T19:56:16.669Z,0
2022-12-01T19:57:56.416Z,0
2022-12-01T19:59:36.186Z,0
2022-12-01T20:01:15.957Z,0
2022-12-01T20:02:55.718Z,0
2022-12-01T20:04:35.538Z,0
2022-12-01T20:06:15.281Z,0
2022-12-01T20:07:55.082Z,0
2022-12-01T20:09:34.798Z,0
2022-12-01T20:11:14.560Z,0
2022-12-01T20:12:54.340Z,0
2022-12-01T20:14:34.166Z,0
2022-12-01T20:16:13.875Z,0
2022-12-01T20:17:53.700Z,0
2022-12-01T20:19:33.438Z,0
2022-12-01T20:21:13.187Z,0
2022-12-01T20:22:52.928Z,0
2022-12-01T20:24:32.696Z,0
2022-12-01T20:26:12.513Z,0
2022-12-01T20:27:52.225Z,0
2022-12-01T20:29:31.995Z,0
2022-12-01T20:31:11.756Z,0
2022-12-01T20:32:51.524Z,0
2022-12-01T20:34:31.354Z,0
2022-12-01T20:36:11.076Z,0
2022-12-01T20:37:50.833Z,0
2022-12-01T20:39:30.607Z,0
2022-12-01T20:41:10.369Z,0
2022-12-01T20:42:50.301Z,0
2022-12-01T20:44:29.913Z,0
2022-12-01T20:46:09.664Z,0
2022-12-01T20:47:49.439Z,0
2022-12-01T20:49:29.199Z,0
2022-12-01T20:51:08.972Z,0
2022-12-01T20:52:48.736Z,0
2022-12-01T20:54:28.509Z,0
2022-12-01T20:56:08.271Z,0
2022-12-01T20:57:48.043Z,0
2022-12-01T20:59:27.829Z,0
2022-12-01T21:01:07.624Z,0
2022-12-01T21:02:47.346Z,0
2022-12-01T21:04:27.099Z,0
2022-12-01T21:06:06.926Z,0
2022-12-01T21:07:46.651Z,0
2022-12-01T21:09:26.474Z,0
2022-12-01T21:11:06.172Z,0
2022-12-01T21:12:45.981Z,0
2022-12-01T21:14:25.747Z,0
2022-12-01T21:16:05.633Z,0
2022-12-01T21:17:45.308Z,0
2022-12-01T21:19:25.072Z,0
2022-12-01T21:21:04.782Z,0
2022-12-01T21:22:44.555Z,0
2022-12-01T21:24:24.465Z,0
2022-12-01T21:26:04.241Z,0
2022-12-01T21:27:43.915Z,0
2022-12-01T21:29:23.797Z,0
2022-12-01T21:31:03.517Z,0
2022-12-01T21:32:43.147Z,0
2022-12-01T21:34:22.959Z,0
2022-12-01T21:36:02.769Z,0
2022-12-01T21:37:42.462Z,0
2022-12-01T21:39:22.229Z,0
2022-12-01T21:41:02.014Z,0
2022-12-01T21:42:41.746Z,0
2022-12-01T21:44:21.517Z,0
2022-12-01T21:46:01.293Z,0
2022-12-01T21:49:20.868Z,0
2022-12-01T21:51:00.752Z,0
2022-12-01T21:52:40.373Z,0
2022-12-01T21:54:20.305Z,0
2022-12-01T21:55:59.907Z,0
2022-12-01T21:57:39.673Z,0
2022-12-01T21:59:19.490Z,0
2022-12-01T22:00:59.366Z,0
2022-12-01T22:02:38.970Z,0
2022-12-01T22:04:18.822Z,0
2022-12-01T22:05:58.507Z,0
2022-12-01T22:07:38.263Z,0
2022-12-01T22:09:18.101Z,0
2022-12-01T22:10:57.797Z,0
2022-12-01T22:12:37.594Z,0
2022-12-01T22:14:17.420Z,0
2022-12-01T22:15:57.109Z,0
2022-12-01T22:17:36.978Z,0
2022-12-01T22:19:16.780Z,0
2022-12-01T22:20:56.404Z,0
2022-12-01T22:22:36.316Z,0
2022-12-01T22:24:15.950Z,0
2022-12-01T22:25:55.760Z,0
2022-12-01T22:27:35.654Z,0
2022-12-01T22:29:15.251Z,0
2022-12-01T22:30:54.995Z,0
2022-12-01T22:32:34.815Z,0
2022-12-01T22:34:14.545Z,0
2022-12-01T22:35:54.401Z,0
2022-12-01T22:37:34.066Z,0
2022-12-01T22:39:13.834Z,0
2022-12-01T22:40:53.736Z,0
2022-12-01T22:42:33.379Z,0
2022-12-01T22:44:13.257Z,0
2022-12-01T22:45:52.973Z,0
2022-12-01T22:47:32.667Z,0
2022-12-01T22:49:12.466Z,0
2022-12-01T22:50:52.209Z,0
2022-12-01T22:52:31.973Z,0
2022-12-01T22:54:11.743Z,0
2022-12-01T22:55:51.551Z,0
2022-12-01T22:57:31.283Z,0
2022-12-01T22:59:11.056Z,0
2022-12-01T23:00:50.816Z,0
2022-12-01T23:02:30.616Z,0
2022-12-01T23:04:10.354Z,0
2022-12-01T23:05:50.121Z,0
2022-12-01T23:07:29.902Z,0
2022-12-01T23:09:09.665Z,0
2022-12-01T23:10:49.415Z,0
2022-12-01T23:12:29.182Z,0
2022-12-01T23:14:08.949Z,0
2022-12-01T23:15:48.842Z,0
2022-12-01T23:17:28.486Z,0
2022-12-01T23:19:08.276Z,0
2022-12-01T23:20:48.034Z,0
2022-12-01T23:22:27.792Z,0
2022-12-01T23:24:07.647Z,0
2022-12-01T23:25:47.322Z,0
2022-12-01T23:27:27.090Z,0
2022-12-01T23:29:06.919Z,0
2022-12-01T23:30:46.642Z,0
2022-12-01T23:32:26.443Z,0
2022-12-01T23:34:06.154Z,0
2022-12-01T23:35:45.917Z,0
2022-12-01T23:37:25.796Z,0
2022-12-01T23:39:05.480Z,0
2022-12-01T23:40:45.236Z,0
2022-12-01T23:42:24.994Z,0
2022-12-01T23:44:04.752Z,0
2022-12-01T23:45:44.523Z,0
2022-12-01T23:47:24.337Z,0
2022-12-01T23:49:04.105Z,0
2022-12-01T23:50:43.828Z,0
2022-12-01T23:52:23.602Z,0
2022-12-01T23:54:03.399Z,0
2022-12-01T23:55:43.140Z,0
2022-12-01T23:57:22.975Z,0
2022-12-01T23:59:02.667Z,0
